createdAt,value
2019-03-05T00:03:58.176Z,38.70
2019-03-05T00:08:59.627Z,38.70
2019-03-05T00:14:00.970Z,38.70
2019-03-05T00:19:02.600Z,38.70
2019-03-05T00:24:59.511Z,38.60
2019-03-05T00:30:47.255Z,38.70
2019-03-05T00:36:06.538Z,38.70
2019-03-05T00:41:24.996Z,38.80
2019-03-05T00:46:41.119Z,38.70
2019-03-05T00:51:57.163Z,38.80
2019-03-05T00:57:13.007Z,38.80
2019-03-05T01:02:49.595Z,38.70
2019-03-05T01:07:50.983Z,38.90
2019-03-05T01:12:52.644Z,38.70
2019-03-05T01:17:54.215Z,38.80
2019-03-05T01:22:55.582Z,38.80
2019-03-05T01:27:57.055Z,38.70
2019-03-05T01:33:00.406Z,38.70
2019-03-05T01:38:01.929Z,38.80
2019-03-05T01:43:03.420Z,38.80
2019-03-05T01:48:04.959Z,38.90
2019-03-05T01:53:06.360Z,38.90
2019-03-05T01:58:07.805Z,39.00
2019-03-05T02:03:09.122Z,39.10
2019-03-05T02:08:10.554Z,38.90
2019-03-05T02:13:11.990Z,39.10
2019-03-05T02:18:17.498Z,38.90
2019-03-05T02:23:24.739Z,38.90
2019-03-05T02:28:52.346Z,38.90
2019-03-05T02:34:04.721Z,39.00
2019-03-05T02:39:37.596Z,39.10
2019-03-05T02:45:12.040Z,38.90
2019-03-05T02:50:24.986Z,39.00
2019-03-05T02:55:40.912Z,39.10
2019-03-05T03:00:53.040Z,38.90
2019-03-05T03:05:56.293Z,38.90
2019-03-05T03:10:57.626Z,39.00
2019-03-05T03:15:59.022Z,38.90
2019-03-05T03:21:00.362Z,39.00
2019-03-05T03:26:01.841Z,39.00
2019-03-05T03:31:03.296Z,39.00
2019-03-05T03:36:05.709Z,39.10
2019-03-05T03:41:07.667Z,39.00
2019-03-05T03:46:09.019Z,39.10
2019-03-05T03:51:10.416Z,39.00
2019-03-05T03:56:12.047Z,39.00
2019-03-05T04:01:13.629Z,39.10
2019-03-05T04:06:15.974Z,39.10
2019-03-05T04:11:17.400Z,39.00
2019-03-05T04:16:18.737Z,39.50
2019-03-05T04:21:20.294Z,39.20
2019-03-05T04:26:21.775Z,39.00
2019-03-05T04:31:23.166Z,39.10
2019-03-05T04:36:24.487Z,39.10
2019-03-05T04:41:25.884Z,39.20
2019-03-05T04:46:31.819Z,39.10
2019-03-05T04:51:35.210Z,39.20
2019-03-05T04:56:36.574Z,39.20
2019-03-05T05:01:37.866Z,39.10
2019-03-05T05:06:39.292Z,39.30
2019-03-05T05:11:40.798Z,39.10
2019-03-05T05:16:42.191Z,39.10
2019-03-05T05:21:43.732Z,39.20
2019-03-05T05:26:45.127Z,39.30
2019-03-05T05:31:46.448Z,39.20
2019-03-05T05:36:47.872Z,39.10
2019-03-05T05:41:49.298Z,39.20
2019-03-05T05:46:50.690Z,39.20
2019-03-05T05:51:52.020Z,39.80
2019-03-05T05:56:54.520Z,39.10
2019-03-05T06:01:55.881Z,39.20
2019-03-05T06:06:57.268Z,39.00
2019-03-05T06:11:58.738Z,39.20
2019-03-05T06:17:00.174Z,39.20
2019-03-05T06:22:01.535Z,39.30
2019-03-05T06:27:04.059Z,39.10
2019-03-05T06:32:05.391Z,39.00
2019-03-05T06:37:06.836Z,39.10
2019-03-05T06:42:08.157Z,39.20
2019-03-05T06:47:09.594Z,39.20
2019-03-05T06:52:11.977Z,39.30
2019-03-05T06:57:13.457Z,39.20
2019-03-05T07:02:14.843Z,39.30
2019-03-05T07:07:16.274Z,39.40
2019-03-05T07:12:44.607Z,39.30
2019-03-05T07:18:03.504Z,39.40
2019-03-05T07:23:13.490Z,39.30
2019-03-05T07:28:14.875Z,39.40
2019-03-05T07:33:16.282Z,39.40
2019-03-05T07:38:17.743Z,39.50
2019-03-05T07:43:19.093Z,39.50
2019-03-05T07:48:20.426Z,39.40
2019-03-05T07:53:21.827Z,39.60
2019-03-05T07:58:23.163Z,39.40
2019-03-05T08:03:24.589Z,39.40
2019-03-05T08:09:06.663Z,39.30
2019-03-05T08:14:40.130Z,39.10
2019-03-05T08:19:41.532Z,39.40
2019-03-05T08:24:42.910Z,39.10
2019-03-05T08:29:45.407Z,39.00
2019-03-05T08:34:47.809Z,39.10
2019-03-05T08:39:49.463Z,39.00
2019-03-05T08:44:51.010Z,39.30
2019-03-05T08:49:52.420Z,39.50
2019-03-05T08:54:53.853Z,39.40
2019-03-05T08:59:55.203Z,39.20
2019-03-05T09:04:56.644Z,39.60
2019-03-05T09:09:58.417Z,39.50
2019-03-05T09:14:59.842Z,39.80
2019-03-05T09:20:01.505Z,39.70
2019-03-05T09:25:06.870Z,39.60
2019-03-05T09:30:20.179Z,39.70
2019-03-05T09:35:21.594Z,39.80
2019-03-05T09:40:29.455Z,39.70
2019-03-05T09:45:30.902Z,39.50
2019-03-05T09:50:32.524Z,39.60
2019-03-05T09:55:35.717Z,39.50
2019-03-05T10:00:37.704Z,39.60
2019-03-05T10:05:39.446Z,39.50
2019-03-05T10:10:41.061Z,39.60
2019-03-05T10:15:42.488Z,39.50
2019-03-05T10:20:43.891Z,39.50
2019-03-05T10:25:46.347Z,39.40
2019-03-05T10:30:47.663Z,39.40
2019-03-05T10:35:49.436Z,39.40
2019-03-05T10:40:54.779Z,39.40
2019-03-05T10:45:56.300Z,39.50
2019-03-05T10:50:57.647Z,39.70
2019-03-05T10:55:59.068Z,39.80
2019-03-05T11:01:02.434Z,39.90
2019-03-05T11:06:06.196Z,39.70
2019-03-05T11:11:13.407Z,39.80
2019-03-05T11:16:11.508Z,39.90
2019-03-05T11:21:12.869Z,39.80
2019-03-05T11:26:16.426Z,40.00
2019-03-05T11:31:17.817Z,40.30
2019-03-05T11:36:19.414Z,39.60
2019-03-05T11:41:20.739Z,39.70
2019-03-05T11:46:22.187Z,39.70
2019-03-05T11:51:23.910Z,39.80
2019-03-05T11:56:26.491Z,39.30
2019-03-05T12:01:30.236Z,39.20
2019-03-05T12:06:31.686Z,39.70
2019-03-05T12:11:33.120Z,39.20
2019-03-05T12:16:34.466Z,39.60
2019-03-05T12:21:35.787Z,38.80
2019-03-05T12:26:37.240Z,39.00
2019-03-05T12:31:38.575Z,39.40
2019-03-05T12:36:39.971Z,39.60
2019-03-05T12:41:41.326Z,39.20
2019-03-05T12:46:42.677Z,39.40
2019-03-05T12:51:43.994Z,39.30
2019-03-05T12:56:45.430Z,39.20
2019-03-05T13:01:46.736Z,39.10
2019-03-05T13:06:49.174Z,39.20
2019-03-05T13:11:51.559Z,39.00
2019-03-05T13:16:52.872Z,38.80
2019-03-05T13:21:54.215Z,38.80
2019-03-05T13:26:55.678Z,39.20
2019-03-05T13:31:57.128Z,38.90
2019-03-05T13:37:00.805Z,38.80
2019-03-05T13:42:01.837Z,38.90
2019-03-05T13:47:04.581Z,39.30
2019-03-05T13:52:28.261Z,38.20
2019-03-05T13:57:51.442Z,39.00
2019-03-05T14:03:05.654Z,38.80
2019-03-05T14:08:59.631Z,39.30
2019-03-05T14:14:02.697Z,38.70
2019-03-05T14:19:04.322Z,39.80
2019-03-05T14:24:05.821Z,39.60
2019-03-05T14:29:07.269Z,39.30
2019-03-05T14:34:08.603Z,39.30
2019-03-05T14:39:30.846Z,39.50
2019-03-05T14:44:39.792Z,39.30
2019-03-05T14:49:35.745Z,39.40
2019-03-05T14:54:37.065Z,39.00
2019-03-05T14:59:38.461Z,39.20
2019-03-05T15:04:39.902Z,38.80
2019-03-05T15:09:41.274Z,38.90
2019-03-05T15:14:42.763Z,39.00
2019-03-05T15:19:44.139Z,39.20
2019-03-05T15:24:45.445Z,39.10
2019-03-05T15:29:46.783Z,38.90
2019-03-05T15:34:49.224Z,38.80
2019-03-05T15:39:50.556Z,38.90
2019-03-05T15:44:51.856Z,39.10
2019-03-05T15:49:53.354Z,38.80
2019-03-05T15:54:54.626Z,38.90
2019-03-05T15:59:55.993Z,39.00
2019-03-05T16:04:58.315Z,38.90
2019-03-05T16:09:59.734Z,39.10
2019-03-05T16:15:09.106Z,39.10
2019-03-05T16:20:14.956Z,39.00
2019-03-05T16:25:22.194Z,39.00
2019-03-05T16:30:45.515Z,39.10
2019-03-05T16:35:51.979Z,39.10
2019-03-05T16:41:10.541Z,39.10
2019-03-05T16:46:13.783Z,39.00
2019-03-05T16:51:17.154Z,39.30
2019-03-05T16:56:29.242Z,39.30
2019-03-05T17:01:38.482Z,39.30
2019-03-05T17:06:58.458Z,39.30
2019-03-05T17:11:59.812Z,39.40
2019-03-05T17:17:01.231Z,39.30
2019-03-05T17:22:04.233Z,39.40
2019-03-05T17:27:05.708Z,39.30
2019-03-05T17:32:07.303Z,39.10
2019-03-05T17:37:08.612Z,39.30
2019-03-05T17:42:09.975Z,39.20
2019-03-05T17:47:11.354Z,39.10
2019-03-05T17:52:12.759Z,39.20
2019-03-05T17:57:14.092Z,39.30
2019-03-05T18:02:15.559Z,39.40
2019-03-05T18:07:17.025Z,39.20
2019-03-05T18:12:18.538Z,39.40
2019-03-05T18:17:19.987Z,39.50
2019-03-05T18:22:21.381Z,39.60
2019-03-05T18:27:22.711Z,39.60
2019-03-05T18:32:24.074Z,39.70
2019-03-05T18:37:25.407Z,39.70
2019-03-05T18:42:26.806Z,39.60
2019-03-05T18:47:28.139Z,39.90
2019-03-05T18:52:29.539Z,39.90
2019-03-05T18:57:30.973Z,39.60
2019-03-05T19:02:32.516Z,39.70
2019-03-05T19:07:33.901Z,39.60
2019-03-05T19:12:35.297Z,39.90
2019-03-05T19:17:36.659Z,39.70
2019-03-05T19:22:38.002Z,39.90
2019-03-05T19:27:39.525Z,39.90
2019-03-05T19:32:41.023Z,39.90
2019-03-05T19:37:42.471Z,40.20
2019-03-05T19:42:43.986Z,40.00
2019-03-05T19:47:45.574Z,40.50
2019-03-05T19:52:47.114Z,40.40
2019-03-05T19:57:48.770Z,40.90
2019-03-05T20:02:50.255Z,40.60
2019-03-05T20:07:51.794Z,40.70
2019-03-05T20:12:53.342Z,40.70
2019-03-05T20:17:58.870Z,40.60
2019-03-05T20:22:57.995Z,40.50
2019-03-05T20:27:59.415Z,40.40
2019-03-05T20:33:00.769Z,40.40
2019-03-05T20:38:02.371Z,40.20
2019-03-05T20:43:04.113Z,40.20
2019-03-05T20:48:06.531Z,40.20
2019-03-05T20:53:08.245Z,40.10
2019-03-05T20:58:10.484Z,40.00
2019-03-05T21:03:12.381Z,40.10
2019-03-05T21:08:13.732Z,39.90
2019-03-05T21:13:15.252Z,39.90
2019-03-05T21:18:19.314Z,39.80
2019-03-05T21:23:20.595Z,40.00
2019-03-05T21:28:21.915Z,39.80
2019-03-05T21:33:23.332Z,39.70
2019-03-05T21:38:24.655Z,39.60
2019-03-05T21:43:26.015Z,39.50
2019-03-05T21:48:27.386Z,39.70
2019-03-05T21:53:28.719Z,39.70
2019-03-05T21:58:31.381Z,39.70
2019-03-05T22:03:32.730Z,39.90
2019-03-05T22:08:34.074Z,40.00
2019-03-05T22:13:35.432Z,39.90
2019-03-05T22:18:36.832Z,40.60
2019-03-05T22:23:38.160Z,40.00
2019-03-05T22:28:40.507Z,40.00
2019-03-05T22:33:42.971Z,39.90
2019-03-05T22:38:44.404Z,39.90
2019-03-05T22:43:45.763Z,40.00
2019-03-05T22:48:47.079Z,40.00
2019-03-05T22:53:48.514Z,40.10
2019-03-05T22:58:49.887Z,40.10
2019-03-05T23:03:51.854Z,40.20
2019-03-05T23:08:53.335Z,40.10
2019-03-05T23:13:54.654Z,40.10
2019-03-05T23:18:56.112Z,40.10
2019-03-05T23:23:57.600Z,40.00
2019-03-05T23:28:58.930Z,40.10
2019-03-05T23:34:01.376Z,40.20
2019-03-05T23:39:06.023Z,40.10
2019-03-05T23:44:07.493Z,40.00
2019-03-05T23:49:09.259Z,40.00
2019-03-05T23:54:10.594Z,40.20
2019-03-05T23:59:12.084Z,40.50
